Time;durP1;ratioP1;P1;durP2;ratioP2;P2;SDS_P1;SDS_P2;PMS_P1;PMS_P2;Temp;Humidity;BMP_temperature;BMP_pressure;BME280_temperature;BME280_humidity;BME280_pressure;Samples;Min_cycle;Max_cycle;Signal;HPM_P1;HPM_P2
2021/04/20 00:00:56;;;;;;;82.17;33.63;;;5.80;99.90;;;;;;5118061;28;20484;-73
2021/04/20 00:03:22;;;;;;;70.50;30.97;;;5.80;99.90;;;;;;5115569;28;20640;-71
2021/04/20 00:05:48;;;;;;;72.77;31.10;;;5.80;99.90;;;;;;5118096;28;20182;-73
2021/04/20 00:08:13;;;;;;;73.37;30.10;;;5.80;99.90;;;;;;5118271;28;20183;-72
2021/04/20 00:10:39;;;;;;;66.77;29.40;;;5.80;99.90;;;;;;5115038;28;20281;-71
2021/04/20 00:13:05;;;;;;;79.03;32.67;;;5.80;99.90;;;;;;5114001;28;20178;-73
2021/04/20 00:15:33;;;;;;;65.77;28.90;;;5.80;99.90;;;;;;5114059;28;20840;-71
2021/04/20 00:18:07;;;;;;;64.70;28.70;;;5.80;99.90;;;;;;5113166;28;20463;-73
2021/04/20 00:20:36;;;;;;;68.40;29.33;;;5.80;99.90;;;;;;5113344;28;20466;-71
2021/04/20 00:23:05;;;;;;;69.50;30.07;;;5.80;99.90;;;;;;5113601;28;20420;-72
2021/04/20 00:25:30;;;;;;;67.40;30.63;;;5.80;99.90;;;;;;5113752;28;20417;-72
2021/04/20 00:27:56;;;;;;;79.67;30.93;;;5.70;99.90;;;;;;5113233;28;20462;-72
2021/04/20 00:30:22;;;;;;;74.07;31.17;;;5.70;99.90;;;;;;5112229;28;20199;-72
2021/04/20 00:32:48;;;;;;;83.77;33.57;;;5.70;99.90;;;;;;5114805;28;20263;-72
2021/04/20 00:35:14;;;;;;;83.70;35.00;;;5.60;99.90;;;;;;5121162;28;20412;-71
2021/04/20 00:37:40;;;;;;;73.27;30.50;;;5.60;99.90;;;;;;5127390;28;20198;-73
2021/04/20 00:40:08;;;;;;;77.00;32.13;;;5.60;99.90;;;;;;5120440;28;20448;-74
2021/04/20 00:42:55;;;;;;;69.17;29.10;;;5.50;99.90;;;;;;5114245;28;20895;-71
2021/04/20 00:45:26;;;;;;;71.73;30.57;;;5.50;99.90;;;;;;5113733;28;20936;-74
2021/04/20 00:47:52;;;;;;;71.50;31.23;;;5.60;99.90;;;;;;5112355;28;20424;-71
2021/04/20 00:50:24;;;;;;;83.13;35.20;;;5.50;99.90;;;;;;5110728;28;20444;-73
2021/04/20 00:52:50;;;;;;;76.80;32.53;;;5.50;99.90;;;;;;5112589;28;20523;-70
2021/04/20 00:55:16;;;;;;;81.20;34.03;;;5.50;99.90;;;;;;5112809;28;20562;-71
2021/04/20 00:57:42;;;;;;;77.63;31.60;;;5.50;99.90;;;;;;5112676;28;20427;-72
2021/04/20 01:00:28;;;;;;;68.90;26.83;;;5.50;99.90;;;;;;5112463;28;20456;-72
2021/04/20 01:02:55;;;;;;;73.33;32.70;;;5.60;99.90;;;;;;5112852;28;20209;-72
2021/04/20 01:05:25;;;;;;;78.30;32.37;;;5.50;99.90;;;;;;5091593;28;20413;-74
2021/04/20 01:07:58;;;;;;;73.60;31.53;;;5.50;99.90;;;;;;5091637;28;20439;-73
2021/04/20 01:10:25;;;;;;;74.13;33.20;;;5.50;99.90;;;;;;5090520;28;20444;-72
2021/04/20 01:12:51;;;;;;;73.13;28.73;;;5.40;99.90;;;;;;5092627;28;20987;-72
2021/04/20 01:15:17;;;;;;;66.27;29.30;;;5.40;99.90;;;;;;5104787;28;20761;-72
2021/04/20 01:17:43;;;;;;;79.43;33.40;;;5.40;99.90;;;;;;5106493;28;20432;-73
2021/04/20 01:20:11;;;;;;;77.70;30.97;;;5.40;99.90;;;;;;5111889;28;20520;-71
2021/04/20 01:22:43;;;;;;;75.00;31.53;;;5.40;99.90;;;;;;5112099;28;20210;-71
2021/04/20 01:25:11;;;;;;;70.30;30.33;;;5.40;99.90;;;;;;5104195;28;20421;-73
2021/04/20 01:27:38;;;;;;;83.63;33.90;;;5.40;99.90;;;;;;5089876;28;20421;-72
2021/04/20 01:30:06;;;;;;;75.27;31.63;;;5.30;99.90;;;;;;5100206;28;20478;-72
2021/04/20 01:32:35;;;;;;;74.47;31.30;;;5.30;99.90;;;;;;5096185;28;20425;-72
2021/04/20 01:35:00;;;;;;;71.90;29.80;;;5.30;99.90;;;;;;5091965;28;20420;-72
2021/04/20 01:37:26;;;;;;;76.13;31.43;;;5.30;99.90;;;;;;5091982;28;20496;-73
2021/04/20 01:39:52;;;;;;;69.37;30.30;;;5.30;99.90;;;;;;5101324;28;20233;-73
2021/04/20 01:42:18;;;;;;;75.87;32.80;;;5.20;99.90;;;;;;5107292;28;20211;-72
2021/04/20 01:44:44;;;;;;;79.87;34.40;;;5.20;99.90;;;;;;5094680;28;20440;-73
2021/04/20 01:47:11;;;;;;;78.87;30.93;;;5.20;99.90;;;;;;5113052;28;20178;-72
2021/04/20 01:49:37;;;;;;;96.80;38.80;;;5.30;99.90;;;;;;5112633;28;20432;-73
2021/04/20 01:52:03;;;;;;;85.50;33.57;;;5.40;99.90;;;;;;5108704;28;20455;-73
2021/04/20 01:54:29;;;;;;;93.40;35.73;;;5.40;99.90;;;;;;5108320;28;20432;-71
2021/04/20 01:56:56;;;;;;;98.63;39.37;;;5.40;99.90;;;;;;5106083;28;20257;-72
2021/04/20 01:59:22;;;;;;;88.70;35.43;;;5.40;99.90;;;;;;5100747;28;20207;-72
2021/04/20 02:01:49;;;;;;;91.53;39.33;;;5.50;99.90;;;;;;5106348;28;20562;-72
2021/04/20 02:04:15;;;;;;;135.00;49.03;;;5.50;99.90;;;;;;5127481;27;20420;-71
2021/04/20 02:06:41;;;;;;;126.33;49.13;;;5.50;99.90;;;;;;5112589;28;20413;-72
2021/04/20 02:09:09;;;;;;;90.20;36.20;;;5.50;99.90;;;;;;5103195;28;20431;-72
2021/04/20 02:11:35;;;;;;;90.03;37.13;;;5.50;99.90;;;;;;5116746;28;20495;-72
2021/04/20 02:14:02;;;;;;;82.40;33.10;;;5.40;99.90;;;;;;5116557;28;20444;-72
2021/04/20 02:16:29;;;;;;;80.53;34.83;;;5.40;99.90;;;;;;5108872;28;20432;-72
2021/04/20 02:18:58;;;;;;;74.17;30.97;;;5.30;99.90;;;;;;5110112;28;20489;-72
2021/04/20 02:21:25;;;;;;;89.23;36.40;;;5.20;99.90;;;;;;5110231;28;20939;-73
2021/04/20 02:23:51;;;;;;;83.60;32.40;;;5.20;99.90;;;;;;5112611;28;20423;-72
2021/04/20 02:26:32;;;;;;;83.87;32.90;;;5.20;99.90;;;;;;5127482;28;20428;-72
2021/04/20 02:29:04;;;;;;;64.27;27.10;;;5.20;99.90;;;;;;5121104;28;20812;-72
2021/04/20 02:31:34;;;;;;;62.07;27.13;;;5.10;99.90;;;;;;5098491;28;20471;-72
2021/04/20 02:34:00;;;;;;;64.97;28.13;;;5.00;99.90;;;;;;5107303;28;20954;-71
2021/04/20 02:36:26;;;;;;;65.30;30.20;;;5.10;99.90;;;;;;5109750;28;20423;-73
2021/04/20 02:38:51;;;;;;;64.03;26.57;;;5.00;99.90;;;;;;5109644;28;20420;-71
2021/04/20 02:41:18;;;;;;;62.83;28.30;;;5.10;99.90;;;;;;5110220;28;20558;-73
2021/04/20 02:43:47;;;;;;;67.47;30.50;;;5.20;99.90;;;;;;5111702;28;20277;-73
2021/04/20 02:46:15;;;;;;;65.30;29.03;;;5.20;99.90;;;;;;5111141;28;20428;-73
2021/04/20 02:48:41;;;;;;;69.67;30.40;;;5.10;99.90;;;;;;5110300;28;20895;-70
2021/04/20 02:51:12;;;;;;;75.70;31.50;;;5.20;99.90;;;;;;5109955;28;20432;-74
2021/04/20 02:53:39;;;;;;;68.53;29.27;;;5.10;99.90;;;;;;5109501;28;20553;-72
2021/04/20 02:56:05;;;;;;;72.30;28.50;;;5.10;99.90;;;;;;5099932;28;20417;-73
2021/04/20 02:58:32;;;;;;;72.03;31.63;;;5.20;99.90;;;;;;5089305;28;20413;-72
2021/04/20 03:01:05;;;;;;;82.97;34.57;;;5.20;99.90;;;;;;5102911;28;20455;-72
2021/04/20 03:03:38;;;;;;;76.67;33.33;;;5.20;99.90;;;;;;5113298;28;20424;-72
2021/04/20 03:06:05;;;;;;;105.97;38.13;;;5.10;99.90;;;;;;5121614;28;20506;-71
2021/04/20 03:08:31;;;;;;;94.43;35.97;;;5.20;99.90;;;;;;5112088;28;20584;-72
2021/04/20 03:11:03;;;;;;;97.37;36.90;;;5.20;99.90;;;;;;5106513;28;20440;-72
2021/04/20 03:13:30;;;;;;;97.13;35.23;;;5.10;99.90;;;;;;5100556;28;20420;-72
2021/04/20 03:15:56;;;;;;;74.83;32.43;;;5.00;99.90;;;;;;5113829;28;20424;-71
2021/04/20 03:18:22;;;;;;;100.73;40.33;;;5.00;99.90;;;;;;5114167;28;20455;-70
2021/04/20 03:20:48;;;;;;;78.13;34.40;;;5.00;99.90;;;;;;5100214;28;20473;-72
2021/04/20 03:23:14;;;;;;;73.00;30.30;;;5.00;99.90;;;;;;5099179;28;20473;-71
2021/04/20 03:25:40;;;;;;;85.13;34.30;;;5.00;99.90;;;;;;5099920;28;20191;-71
2021/04/20 03:28:08;;;;;;;81.73;34.27;;;5.00;99.90;;;;;;5106647;28;20517;-71
2021/04/20 03:30:34;;;;;;;83.17;37.33;;;4.90;99.90;;;;;;5093229;28;20498;-72
2021/04/20 03:33:19;;;;;;;85.43;34.77;;;4.90;99.90;;;;;;5100595;28;20430;-72
2021/04/20 03:36:13;;;;;;;90.07;35.30;;;4.80;99.90;;;;;;5095759;28;20733;-70
2021/04/20 03:38:46;;;;;;;71.40;32.50;;;4.80;99.90;;;;;;5093279;28;20482;-72
2021/04/20 03:41:39;;;;;;;91.30;36.47;;;4.80;99.90;;;;;;5098727;28;20478;-70
2021/04/20 03:44:09;;;;;;;82.17;34.63;;;4.80;99.90;;;;;;5090147;28;20429;-70
2021/04/20 03:46:40;;;;;;;79.73;35.57;;;4.70;99.90;;;;;;5106646;28;20459;-71
2021/04/20 03:49:16;;;;;;;81.23;33.73;;;4.70;99.90;;;;;;5110584;28;20417;-72
2021/04/20 03:51:48;;;;;;;85.43;37.03;;;4.70;99.90;;;;;;5107292;28;20427;-70
2021/04/20 03:54:19;;;;;;;84.57;34.87;;;4.60;99.90;;;;;;5113888;28;20424;-71
2021/04/20 03:56:47;;;;;;;78.33;33.80;;;4.60;99.90;;;;;;5112266;28;20484;-72
2021/04/20 03:59:19;;;;;;;81.90;36.90;;;4.60;99.90;;;;;;5112035;28;20931;-71
2021/04/20 04:01:51;;;;;;;68.43;32.63;;;4.70;99.90;;;;;;5112723;28;20567;-71
2021/04/20 04:04:23;;;;;;;73.13;32.20;;;4.70;99.90;;;;;;5102539;28;20428;-70
2021/04/20 04:06:49;;;;;;;76.40;33.03;;;4.80;99.90;;;;;;5091764;28;20474;-72
2021/04/20 04:09:17;;;;;;;74.20;31.37;;;4.80;99.90;;;;;;5092877;28;20483;-72
2021/04/20 04:11:52;;;;;;;93.33;35.07;;;4.80;99.90;;;;;;5090705;28;21219;-70
2021/04/20 04:14:43;;;;;;;69.10;31.10;;;4.80;99.90;;;;;;5093066;28;20428;-72
2021/04/20 04:20:05;;;;;;;82.97;32.23;;;4.80;99.90;;;;;;5029072;28;20530;-72
2021/04/20 04:22:50;;;;;;;80.20;34.47;;;4.90;99.90;;;;;;5029262;28;20486;-71
2021/04/20 04:25:20;;;;;;;78.47;32.37;;;4.90;99.90;;;;;;5010304;28;20430;-72
2021/04/20 04:27:48;;;;;;;71.93;33.70;;;4.90;99.90;;;;;;5022859;28;20534;-71
2021/04/20 04:30:18;;;;;;;85.10;39.00;;;4.90;99.90;;;;;;5035372;28;20521;-71
2021/04/20 04:32:45;;;;;;;69.10;30.03;;;4.80;99.90;;;;;;5029997;28;20433;-70
2021/04/20 04:35:11;;;;;;;82.30;32.87;;;4.80;99.90;;;;;;5030584;28;20518;-68
2021/04/20 04:37:41;;;;;;;71.87;30.47;;;4.90;99.90;;;;;;5015036;28;20475;-69
2021/04/20 04:40:08;;;;;;;87.50;34.43;;;4.90;99.90;;;;;;5031679;28;20452;-69
2021/04/20 04:42:35;;;;;;;75.67;31.20;;;4.90;99.90;;;;;;5029799;28;20518;-69
2021/04/20 04:45:04;;;;;;;70.60;28.80;;;4.90;99.90;;;;;;5029546;28;20466;-68
2021/04/20 04:47:32;;;;;;;91.33;32.93;;;4.90;99.90;;;;;;5031091;28;20431;-68
2021/04/20 04:50:00;;;;;;;82.50;35.43;;;4.90;99.90;;;;;;5031723;28;20562;-67
2021/04/20 04:52:27;;;;;;;94.67;36.63;;;4.90;99.90;;;;;;5014120;28;20497;-69
2021/04/20 04:54:53;;;;;;;92.53;36.37;;;4.90;99.90;;;;;;5031089;28;20427;-69
2021/04/20 04:57:20;;;;;;;69.47;29.80;;;4.80;99.90;;;;;;5074273;28;20429;-70
2021/04/20 04:59:48;;;;;;;68.73;32.70;;;4.80;99.90;;;;;;5092874;28;20532;-68
2021/04/20 05:02:14;;;;;;;59.67;28.53;;;4.70;99.90;;;;;;5093388;28;20564;-68
2021/04/20 05:04:40;;;;;;;58.50;26.67;;;4.70;99.90;;;;;;5091474;28;20516;-69
2021/04/20 05:07:06;;;;;;;51.63;25.33;;;4.70;99.90;;;;;;5091152;28;20508;-69
2021/04/20 05:09:32;;;;;;;56.30;24.90;;;4.80;99.90;;;;;;5091378;28;20249;-71
2021/04/20 05:11:58;;;;;;;46.60;23.47;;;4.90;99.90;;;;;;5091452;28;21024;-71
2021/04/20 05:14:25;;;;;;;58.40;26.53;;;4.90;99.90;;;;;;5090695;28;20186;-72
2021/04/20 05:16:53;;;;;;;51.30;25.10;;;4.80;99.90;;;;;;5091002;28;20960;-72
2021/04/20 05:19:45;;;;;;;53.00;24.77;;;4.80;99.90;;;;;;5110249;28;20444;-71
2021/04/20 05:22:12;;;;;;;65.07;28.10;;;4.80;99.90;;;;;;5093525;28;20464;-72
2021/04/20 05:24:38;;;;;;;61.57;27.70;;;4.80;99.90;;;;;;5091322;28;20474;-72
2021/04/20 05:27:06;;;;;;;47.83;23.43;;;4.80;99.90;;;;;;5091286;28;20417;-71
2021/04/20 05:29:32;;;;;;;56.47;25.93;;;4.80;99.90;;;;;;5092091;28;20456;-71
2021/04/20 05:31:58;;;;;;;63.30;26.23;;;4.90;99.90;;;;;;5091386;28;20445;-69
2021/04/20 05:34:24;;;;;;;59.90;26.00;;;4.90;99.90;;;;;;5101500;28;20429;-73
2021/04/20 05:36:50;;;;;;;49.33;25.10;;;5.00;99.90;;;;;;5108714;28;20222;-70
2021/04/20 05:39:17;;;;;;;53.20;24.70;;;5.10;99.90;;;;;;5092208;28;20211;-70
2021/04/20 05:41:44;;;;;;;56.27;25.20;;;5.10;99.90;;;;;;5091221;28;20207;-73
2021/04/20 05:44:13;;;;;;;51.03;23.30;;;5.00;99.90;;;;;;5090988;28;20509;-70
2021/04/20 05:46:47;;;;;;;56.50;26.00;;;5.20;99.90;;;;;;5103182;28;20421;-73
2021/04/20 05:49:15;;;;;;;49.83;22.10;;;5.30;99.90;;;;;;5091546;28;20429;-72
2021/04/20 05:51:41;;;;;;;43.10;22.37;;;5.30;99.90;;;;;;5103218;28;20573;-73
2021/04/20 05:54:08;;;;;;;58.20;26.77;;;5.40;99.90;;;;;;5109838;28;20435;-72
2021/04/20 05:56:35;;;;;;;52.83;25.30;;;5.40;99.70;;;;;;5110976;28;20786;-71
2021/04/20 05:59:03;;;;;;;54.57;25.17;;;5.40;99.40;;;;;;5090834;28;20425;-72
2021/04/20 06:01:29;;;;;;;56.70;26.87;;;5.40;99.40;;;;;;5090471;28;20883;-74
2021/04/20 06:03:57;;;;;;;59.07;27.63;;;5.40;99.40;;;;;;5090625;28;20957;-73
2021/04/20 06:06:24;;;;;;;58.93;25.43;;;5.50;99.30;;;;;;5091023;28;20428;-72
2021/04/20 06:08:52;;;;;;;57.57;27.57;;;5.50;99.30;;;;;;5102881;28;20429;-71
2021/04/20 06:11:19;;;;;;;54.47;26.80;;;5.60;99.10;;;;;;5091161;28;20449;-72
2021/04/20 06:13:46;;;;;;;52.73;24.27;;;5.60;99.10;;;;;;5091740;28;20421;-71
2021/04/20 06:16:12;;;;;;;54.07;26.13;;;5.60;99.00;;;;;;5092055;28;20449;-73
2021/04/20 06:18:39;;;;;;;45.93;22.93;;;5.70;99.10;;;;;;5095064;28;20425;-73
2021/04/20 06:21:07;;;;;;;55.30;25.30;;;5.80;99.20;;;;;;5090800;28;20471;-74
2021/04/20 06:23:35;;;;;;;50.30;25.20;;;5.90;99.10;;;;;;5090619;28;20444;-73
2021/04/20 06:26:03;;;;;;;49.50;24.67;;;6.00;99.00;;;;;;5091714;28;20425;-72
2021/04/20 06:28:31;;;;;;;53.53;24.47;;;6.10;98.60;;;;;;5091883;28;20481;-71
2021/04/20 06:31:02;;;;;;;49.23;24.83;;;6.20;98.20;;;;;;5091744;28;20441;-71
2021/04/20 06:33:31;;;;;;;53.23;25.17;;;6.30;97.90;;;;;;5090151;28;20915;-70
2021/04/20 06:35:57;;;;;;;54.40;25.33;;;6.30;97.60;;;;;;5105965;28;20419;-73
2021/04/20 06:38:23;;;;;;;52.87;25.40;;;6.40;97.40;;;;;;5111308;28;20428;-73
2021/04/20 06:40:54;;;;;;;54.13;27.20;;;6.50;97.20;;;;;;5109386;28;20498;-70
2021/04/20 06:43:34;;;;;;;57.30;27.60;;;6.50;97.20;;;;;;5110813;28;20532;-72
2021/04/20 06:46:08;;;;;;;49.37;24.67;;;6.60;97.20;;;;;;5097710;28;20419;-70
2021/04/20 06:48:47;;;;;;;64.23;28.67;;;6.70;97.10;;;;;;5111058;28;21122;-72
2021/04/20 06:51:14;;;;;;;54.13;25.87;;;6.70;97.00;;;;;;5110720;28;20482;-72
2021/04/20 06:53:48;;;;;;;50.77;24.03;;;6.90;97.00;;;;;;5110377;28;20419;-72
2021/04/20 06:56:59;;;;;;;48.53;25.60;;;7.10;96.60;;;;;;5110606;28;20416;-72
2021/04/20 06:59:56;;;;;;;46.03;23.33;;;7.20;95.80;;;;;;5037675;28;20470;-72
2021/04/20 07:02:43;;;;;;;49.20;24.10;;;7.30;95.30;;;;;;5023160;28;21340;-70
2021/04/20 07:05:10;;;;;;;68.27;25.30;;;7.30;95.40;;;;;;5045867;28;20551;-72
2021/04/20 07:08:02;;;;;;;52.77;25.33;;;7.40;95.40;;;;;;5047581;28;20419;-70
2021/04/20 07:10:36;;;;;;;57.40;26.77;;;7.50;95.00;;;;;;5047438;28;20457;-74
2021/04/20 07:13:15;;;;;;;53.43;26.33;;;7.50;95.00;;;;;;5047142;28;20814;-73
2021/04/20 07:15:50;;;;;;;52.63;25.70;;;7.50;95.10;;;;;;5046963;28;20431;-73
2021/04/20 07:18:37;;;;;;;61.03;28.53;;;7.60;95.20;;;;;;5031067;28;20906;-73
2021/04/20 07:21:21;;;;;;;56.60;28.27;;;7.60;95.10;;;;;;5047350;28;20524;-74
2021/04/20 07:23:54;;;;;;;62.70;29.10;;;7.50;95.20;;;;;;5032497;28;20427;-73
2021/04/20 07:26:57;;;;;;;61.13;27.33;;;7.70;95.40;;;;;;5048581;28;20431;-72
2021/04/20 07:29:48;;;;;;;56.93;27.80;;;7.90;95.40;;;;;;4968530;28;20467;-72
2021/04/20 07:32:37;;;;;;;59.13;26.80;;;8.00;95.00;;;;;;5104181;28;20493;-73
2021/04/20 07:35:15;;;;;;;57.03;26.23;;;8.10;94.80;;;;;;5112471;28;20413;-73
2021/04/20 07:37:50;;;;;;;48.87;24.20;;;8.20;94.50;;;;;;5110457;28;20497;-73
2021/04/20 07:40:28;;;;;;;54.87;25.30;;;8.30;94.40;;;;;;5109841;28;20534;-70
2021/04/20 07:43:08;;;;;;;60.50;27.30;;;8.40;94.00;;;;;;5110645;28;20983;-74
2021/04/20 07:46:09;;;;;;;57.73;25.30;;;8.40;93.80;;;;;;5108335;28;20412;-73
2021/04/20 07:48:50;;;;;;;50.80;26.10;;;8.50;93.40;;;;;;5112824;28;20412;-72
2021/04/20 07:51:33;;;;;;;49.40;25.63;;;8.60;93.10;;;;;;5113361;28;20490;-72
2021/04/20 07:54:26;;;;;;;49.70;23.73;;;8.70;93.50;;;;;;5113817;28;20515;-74
2021/04/20 07:57:03;;;;;;;51.77;24.20;;;8.70;93.50;;;;;;5120807;28;20507;-74
2021/04/20 07:59:41;;;;;;;46.27;24.30;;;8.70;93.90;;;;;;5114094;28;20511;-72
2021/04/20 08:02:40;;;;;;;45.27;23.23;;;8.80;93.90;;;;;;5120816;28;20509;-74
2021/04/20 08:05:46;;;;;;;46.83;23.57;;;8.80;93.70;;;;;;5121701;28;20416;-71
2021/04/20 08:08:22;;;;;;;43.83;23.23;;;9.00;93.70;;;;;;5050090;28;20564;-73
2021/04/20 08:10:59;;;;;;;46.10;23.03;;;9.10;93.30;;;;;;5037924;28;20567;-74
2021/04/20 08:13:30;;;;;;;48.03;24.50;;;9.30;92.80;;;;;;5030041;28;20531;-73
2021/04/20 08:16:15;;;;;;;48.63;24.07;;;9.50;92.20;;;;;;5026495;28;20423;-75
2021/04/20 08:18:56;;;;;;;48.60;25.30;;;9.60;92.10;;;;;;5024727;28;20434;-75
2021/04/20 08:21:23;;;;;;;41.60;23.40;;;9.80;91.10;;;;;;5036031;28;20570;-72
2021/04/20 08:23:51;;;;;;;48.30;24.63;;;9.90;91.10;;;;;;5049574;28;20435;-73
2021/04/20 08:26:27;;;;;;;53.30;25.17;;;10.10;90.60;;;;;;5027332;28;20436;-76
2021/04/20 08:29:02;;;;;;;53.30;26.13;;;10.20;89.90;;;;;;5029429;28;20443;-73
2021/04/20 08:31:38;;;;;;;49.40;24.97;;;10.30;89.60;;;;;;5037435;28;20522;-73
2021/04/20 08:34:29;;;;;;;48.20;24.67;;;10.30;89.20;;;;;;5033066;28;20434;-75
2021/04/20 08:37:14;;;;;;;49.40;25.40;;;10.30;88.40;;;;;;5029103;28;20456;-71
2021/04/20 08:39:48;;;;;;;51.97;24.93;;;10.40;88.60;;;;;;5028682;28;20451;-73
2021/04/20 08:42:36;;;;;;;49.27;23.73;;;10.50;88.00;;;;;;5066859;28;20832;-75
2021/04/20 08:45:18;;;;;;;47.90;25.40;;;10.60;87.60;;;;;;5112553;28;20473;-73
2021/04/20 08:47:50;;;;;;;50.07;25.73;;;10.60;86.30;;;;;;5100188;28;20438;-73
2021/04/20 08:50:25;;;;;;;48.30;25.03;;;10.50;86.30;;;;;;5112126;28;20535;-74
2021/04/20 08:53:00;;;;;;;55.30;27.27;;;10.50;86.60;;;;;;5113460;28;20459;-73
2021/04/20 08:55:48;;;;;;;54.80;26.57;;;10.50;86.30;;;;;;5111826;28;20919;-71
2021/04/20 08:58:34;;;;;;;46.90;22.93;;;10.50;86.50;;;;;;5110633;28;20424;-74
2021/04/20 09:01:15;;;;;;;53.13;24.77;;;10.60;86.50;;;;;;5110796;28;20478;-74
2021/04/20 09:03:55;;;;;;;51.67;24.47;;;10.70;86.00;;;;;;5111780;28;20451;-75
2021/04/20 09:06:39;;;;;;;54.70;25.17;;;10.60;85.50;;;;;;5111779;28;20423;-75
2021/04/20 09:09:12;;;;;;;52.83;24.90;;;10.70;85.50;;;;;;5111863;28;20419;-74
2021/04/20 09:11:46;;;;;;;46.70;22.03;;;10.80;85.20;;;;;;5111399;28;20416;-74
2021/04/20 09:14:33;;;;;;;43.73;20.40;;;10.90;84.10;;;;;;5112369;28;20448;-73
2021/04/20 09:17:04;;;;;;;47.77;22.60;;;11.00;83.70;;;;;;5100274;28;20416;-73
2021/04/20 09:20:01;;;;;;;46.93;22.90;;;11.10;83.00;;;;;;5111468;28;20452;-74
2021/04/20 09:22:43;;;;;;;40.23;21.17;;;11.20;82.10;;;;;;5111552;28;20467;-73
2021/04/20 09:25:23;;;;;;;42.70;20.40;;;11.30;79.90;;;;;;5111560;28;20955;-74
2021/04/20 09:28:14;;;;;;;38.50;20.30;;;11.40;79.60;;;;;;5112127;28;20420;-69
2021/04/20 09:30:54;;;;;;;44.10;22.40;;;11.50;79.00;;;;;;5111070;28;20451;-71
2021/04/20 09:33:38;;;;;;;44.40;22.37;;;11.60;78.70;;;;;;5112278;28;20408;-74
2021/04/20 09:36:08;;;;;;;44.80;21.03;;;11.60;78.60;;;;;;5106214;28;20822;-74
2021/04/20 09:38:38;;;;;;;39.33;20.33;;;11.70;78.60;;;;;;5091905;28;20417;-72
2021/04/20 09:41:07;;;;;;;44.13;20.83;;;11.80;77.00;;;;;;5110220;28;20436;-74
2021/04/20 09:44:12;;;;;;;39.50;19.43;;;12.00;76.10;;;;;;5111771;28;20420;-74
2021/04/20 09:47:13;;;;;;;33.60;18.23;;;11.90;75.90;;;;;;5047376;28;20797;-74
2021/04/20 09:50:12;;;;;;;38.17;19.50;;;11.90;75.90;;;;;;5016435;28;20446;-74
2021/04/20 09:53:02;;;;;;;35.17;19.07;;;11.90;75.80;;;;;;5011849;28;20436;-72
2021/04/20 09:55:34;;;;;;;38.13;20.10;;;12.00;76.40;;;;;;5028895;28;20435;-73
2021/04/20 09:58:02;;;;;;;36.13;19.70;;;12.00;75.70;;;;;;5042841;28;20432;-70
2021/04/20 10:00:29;;;;;;;30.77;17.80;;;12.10;75.50;;;;;;5026785;28;20526;-72
2021/04/20 10:03:23;;;;;;;37.07;19.03;;;12.10;75.40;;;;;;5025966;28;20569;-74
2021/04/20 10:06:02;;;;;;;30.53;15.70;;;12.20;74.60;;;;;;5038959;28;20430;-73
2021/04/20 10:09:13;;;;;;;28.80;16.40;;;12.20;72.90;;;;;;5048610;28;20421;-71
2021/04/20 10:11:47;;;;;;;37.83;19.03;;;12.20;72.60;;;;;;5042930;28;20420;-72
2021/04/20 10:14:21;;;;;;;29.77;14.97;;;12.10;72.90;;;;;;5041486;28;20426;-71
2021/04/20 10:17:10;;;;;;;29.97;16.50;;;12.30;72.40;;;;;;5047919;28;20427;-70
2021/04/20 10:20:03;;;;;;;29.40;15.40;;;12.40;71.30;;;;;;5044014;28;20486;-75
2021/04/20 10:22:49;;;;;;;33.13;16.60;;;12.50;70.50;;;;;;5032728;28;21056;-72
2021/04/20 10:25:26;;;;;;;27.47;16.20;;;12.70;70.50;;;;;;5111189;28;20450;-76
2021/04/20 10:28:04;;;;;;;32.00;17.07;;;12.90;69.80;;;;;;5113050;28;20424;-71
2021/04/20 10:30:32;;;;;;;28.90;15.73;;;13.00;70.70;;;;;;5113766;28;20792;-74
2021/04/20 10:32:59;;;;;;;29.07;15.50;;;13.20;68.60;;;;;;5114231;28;20973;-72
2021/04/20 10:35:31;;;;;;;23.90;14.60;;;13.30;67.20;;;;;;5112895;28;20427;-70
2021/04/20 10:37:59;;;;;;;27.13;15.33;;;13.50;66.30;;;;;;5112384;28;20443;-73
2021/04/20 10:40:34;;;;;;;32.87;16.60;;;13.60;65.80;;;;;;5114624;28;20471;-72
2021/04/20 10:43:06;;;;;;;32.20;16.00;;;13.80;65.80;;;;;;5114407;28;20455;-74
2021/04/20 10:45:33;;;;;;;26.70;14.83;;;13.70;65.80;;;;;;5113048;28;20418;-73
2021/04/20 10:47:59;;;;;;;31.03;16.10;;;14.00;65.80;;;;;;5101491;28;20893;-74
2021/04/20 10:50:30;;;;;;;33.50;16.57;;;14.10;63.50;;;;;;5107530;28;20460;-73
2021/04/20 10:53:07;;;;;;;22.83;13.53;;;14.30;63.50;;;;;;5111458;28;20423;-72
2021/04/20 10:55:36;;;;;;;27.37;14.60;;;14.50;62.30;;;;;;5111512;28;20421;-69
2021/04/20 10:58:04;;;;;;;23.00;13.20;;;14.50;62.00;;;;;;5113495;28;20495;-74
2021/04/20 11:00:33;;;;;;;23.30;14.13;;;14.40;60.60;;;;;;5111568;28;20586;-77
2021/04/20 11:03:00;;;;;;;26.77;14.30;;;14.30;61.50;;;;;;5100360;28;20457;-73
2021/04/20 11:05:28;;;;;;;25.83;14.00;;;14.30;61.60;;;;;;5104469;28;20477;-72
2021/04/20 11:07:55;;;;;;;24.50;13.17;;;14.50;62.30;;;;;;5117970;28;20439;-70
2021/04/20 11:10:27;;;;;;;21.97;12.50;;;14.60;60.40;;;;;;5113037;28;20435;-71
2021/04/20 11:12:54;;;;;;;20.83;12.30;;;14.80;59.50;;;;;;5110854;28;20460;-71
2021/04/20 11:15:24;;;;;;;22.07;12.87;;;14.80;58.90;;;;;;5117394;28;20532;-70
2021/04/20 11:17:55;;;;;;;23.03;14.30;;;14.90;58.70;;;;;;5121345;28;20912;-69
2021/04/20 11:20:24;;;;;;;24.93;14.10;;;15.00;58.00;;;;;;5111017;28;20489;-71
2021/04/20 11:23:17;;;;;;;21.40;12.30;;;15.00;58.10;;;;;;5114093;28;20871;-71
2021/04/20 11:25:55;;;;;;;20.80;12.10;;;14.90;57.80;;;;;;5116566;28;20946;-75
2021/04/20 11:28:28;;;;;;;22.17;12.33;;;14.80;58.40;;;;;;5114388;28;20439;-76
2021/04/20 11:30:55;;;;;;;20.97;11.90;;;15.20;57.60;;;;;;5115706;28;20436;-72
2021/04/20 11:33:37;;;;;;;26.80;14.60;;;15.80;56.40;;;;;;5102629;28;20980;-71
2021/04/20 11:36:08;;;;;;;23.60;13.30;;;15.70;54.80;;;;;;5095709;28;20443;-75
2021/04/20 11:39:08;;;;;;;26.47;14.17;;;15.10;56.80;;;;;;5095241;28;20424;-71
2021/04/20 11:41:43;;;;;;;26.90;14.40;;;14.70;59.10;;;;;;5052886;28;21082;-73
2021/04/20 11:44:11;;;;;;;20.67;12.60;;;14.70;58.80;;;;;;5029187;28;20423;-73
2021/04/20 11:46:40;;;;;;;24.20;13.40;;;14.60;58.70;;;;;;5046499;28;20484;-72
2021/04/20 11:49:26;;;;;;;21.20;12.10;;;14.80;58.70;;;;;;5038122;28;20915;-70
2021/04/20 11:51:54;;;;;;;21.43;11.73;;;14.80;56.20;;;;;;5036325;28;20854;-70
2021/04/20 11:54:24;;;;;;;20.17;11.60;;;14.60;56.60;;;;;;5052140;28;20451;-72
2021/04/20 11:56:53;;;;;;;19.80;11.00;;;14.50;56.80;;;;;;5035331;28;20585;-74
2021/04/20 11:59:21;;;;;;;21.77;11.27;;;14.60;57.70;;;;;;5032011;28;20451;-69
2021/04/20 12:01:48;;;;;;;18.37;11.10;;;15.00;57.60;;;;;;5035144;28;20458;-74
2021/04/20 12:04:20;;;;;;;22.90;11.80;;;15.10;55.80;;;;;;5051973;28;20802;-72
2021/04/20 12:06:50;;;;;;;23.67;13.27;;;15.10;56.50;;;;;;5046524;28;20452;-70
2021/04/20 12:09:20;;;;;;;24.93;12.60;;;15.20;56.50;;;;;;5029995;28;20465;-70
2021/04/20 12:11:47;;;;;;;24.20;13.00;;;15.50;55.30;;;;;;5029479;28;20439;-71
2021/04/20 12:14:20;;;;;;;19.47;12.23;;;15.20;55.80;;;;;;5042720;28;20438;-70
2021/04/20 12:16:48;;;;;;;18.83;12.47;;;15.50;55.80;;;;;;5051956;28;20462;-70
2021/04/20 12:19:17;;;;;;;21.37;12.50;;;15.80;54.10;;;;;;5109006;28;20873;-69
2021/04/20 12:21:46;;;;;;;19.03;11.60;;;15.70;55.00;;;;;;5104342;28;20951;-71
2021/04/20 12:24:16;;;;;;;23.27;13.20;;;15.20;55.60;;;;;;5092286;28;20421;-72
2021/04/20 12:26:48;;;;;;;23.53;12.57;;;14.90;56.90;;;;;;5094150;28;20424;-71
2021/04/20 12:29:16;;;;;;;17.87;10.67;;;15.00;56.90;;;;;;5105789;28;20508;-70
2021/04/20 12:31:42;;;;;;;20.07;10.80;;;15.30;56.20;;;;;;5099512;28;20423;-70
2021/04/20 12:34:08;;;;;;;17.53;10.90;;;15.40;54.40;;;;;;5097454;28;20420;-70
2021/04/20 12:36:49;;;;;;;15.60;9.63;;;15.30;55.20;;;;;;5092087;28;20432;-70
2021/04/20 12:39:32;;;;;;;13.57;8.90;;;15.50;53.60;;;;;;5094625;28;20464;-71
2021/04/20 12:42:02;;;;;;;14.87;9.00;;;15.60;53.40;;;;;;5100252;28;20469;-70
2021/04/20 12:44:34;;;;;;;15.33;8.97;;;15.80;52.00;;;;;;5091733;28;20413;-72
2021/04/20 12:47:01;;;;;;;13.60;8.17;;;15.90;51.30;;;;;;5107116;28;20978;-71
2021/04/20 12:49:28;;;;;;;13.90;8.40;;;15.90;50.60;;;;;;5114170;28;20431;-70
2021/04/20 12:51:57;;;;;;;15.80;9.03;;;15.80;50.50;;;;;;5125269;27;20447;-70
2021/04/20 12:54:27;;;;;;;14.00;8.73;;;16.10;50.30;;;;;;5120952;28;20442;-70
2021/04/20 12:56:59;;;;;;;15.40;10.60;;;16.40;50.50;;;;;;5116353;28;20439;-69
2021/04/20 12:59:28;;;;;;;16.63;10.43;;;16.60;49.90;;;;;;5108589;28;20437;-73
2021/04/20 13:01:58;;;;;;;16.23;10.33;;;16.30;50.60;;;;;;5108366;28;20461;-70
2021/04/20 13:04:32;;;;;;;16.47;10.80;;;16.00;51.60;;;;;;5102690;28;20497;-71